Time;durP1;ratioP1;P1;durP2;ratioP2;P2;SDS_P1;SDS_P2;PMS_P1;PMS_P2;Temp;Humidity;BMP_temperature;BMP_pressure;BME280_temperature;BME280_humidity;BME280_pressure;Samples;Min_cycle;Max_cycle;Signal;HPM_P1;HPM_P2
2023/07/31 00:02:06;;;;;;;;;;;18.70;99.90;;;;;;5004507;28;19973;-69
2023/07/31 00:04:33;;;;;;;;;;;18.70;99.90;;;;;;4989705;28;19964;-67
2023/07/31 00:07:04;;;;;;;;;;;18.70;99.90;;;;;;4988459;28;19969;-64
2023/07/31 00:09:32;;;;;;;;;;;18.70;99.90;;;;;;4990868;28;20511;-65
2023/07/31 00:11:59;;;;;;;;;;;18.80;99.90;;;;;;4985820;28;19969;-66
2023/07/31 00:14:27;;;;;;;;;;;18.70;99.90;;;;;;4991427;28;20051;-65
2023/07/31 00:16:55;;;;;;;;;;;18.70;99.90;;;;;;4988927;28;20059;-66
2023/07/31 00:19:23;;;;;;;;;;;18.70;99.90;;;;;;4990887;28;20467;-66
2023/07/31 00:21:50;;;;;;;;;;;18.60;99.90;;;;;;4990608;28;20027;-66
2023/07/31 00:24:20;;;;;;;;;;;18.60;99.90;;;;;;4983766;28;19964;-66
2023/07/31 00:26:47;;;;;;;;;;;18.60;99.90;;;;;;4989478;28;19965;-66
2023/07/31 00:29:15;;;;;;;;;;;18.70;99.90;;;;;;4990615;28;20337;-66
2023/07/31 00:31:43;;;;;;;;;;;18.60;99.90;;;;;;5001735;28;19968;-66
2023/07/31 00:34:11;;;;;;;;;;;18.60;99.90;;;;;;4991013;28;19971;-66
2023/07/31 00:36:38;;;;;;;;;;;18.50;99.90;;;;;;4990309;28;20498;-66
2023/07/31 00:39:07;;;;;;;;;;;18.40;99.90;;;;;;4989872;28;20436;-66
2023/07/31 00:41:36;;;;;;;;;;;18.50;99.90;;;;;;4989322;28;19980;-66
2023/07/31 00:44:04;;;;;;;;;;;18.40;99.90;;;;;;4988458;28;19969;-66
2023/07/31 00:46:31;;;;;;;;;;;18.30;99.90;;;;;;4989212;28;19965;-66
2023/07/31 00:49:00;;;;;;;;;;;18.30;99.90;;;;;;4989323;28;19997;-66
2023/07/31 00:51:27;;;;;;;;;;;18.30;99.90;;;;;;4990261;28;19965;-65
2023/07/31 00:53:56;;;;;;;;;;;18.30;99.90;;;;;;4989849;28;19969;-65
2023/07/31 00:56:24;;;;;;;;;;;18.30;99.90;;;;;;4989921;28;19965;-63
2023/07/31 00:58:53;;;;;;;;;;;18.30;99.90;;;;;;4989827;28;19964;-66
2023/07/31 01:01:21;;;;;;;;;;;18.40;99.90;;;;;;4990336;28;19968;-67
2023/07/31 01:03:51;;;;;;;;;;;18.40;99.90;;;;;;4987809;28;20008;-66
2023/07/31 01:06:26;;;;;;;;;;;18.60;99.90;;;;;;4989012;28;20340;-65
2023/07/31 01:08:58;;;;;;;;;;;18.70;99.90;;;;;;4988491;28;19961;-65
2023/07/31 01:11:28;;;;;;;;;;;18.70;99.90;;;;;;4990024;28;19961;-67
2023/07/31 01:13:59;;;;;;;;;;;18.80;99.90;;;;;;4989022;28;19967;-67
2023/07/31 01:16:27;;;;;;;;;;;18.80;99.90;;;;;;4989723;28;20624;-65
2023/07/31 01:18:55;;;;;;;;;;;18.80;99.90;;;;;;4990372;28;19965;-66
2023/07/31 01:21:30;;;;;;;;;;;18.70;99.90;;;;;;4989398;28;19984;-66
2023/07/31 01:24:06;;;;;;;;;;;18.80;99.90;;;;;;4992272;28;20019;-66
2023/07/31 01:26:37;;;;;;;;;;;18.70;99.90;;;;;;4994299;28;19964;-66
2023/07/31 01:29:08;;;;;;;;;;;18.70;99.90;;;;;;4992733;28;19987;-66
2023/07/31 01:31:37;;;;;;;;;;;18.60;99.90;;;;;;4991704;28;19968;-65
2023/07/31 01:34:05;;;;;;;;;;;18.60;99.90;;;;;;4999466;28;19992;-66
2023/07/31 01:36:33;;;;;;;;;;;18.50;99.90;;;;;;4992892;28;19961;-67
2023/07/31 01:39:01;;;;;;;;;;;18.50;99.90;;;;;;4991842;28;20515;-66
2023/07/31 01:41:29;;;;;;;;;;;18.40;99.90;;;;;;4993175;28;19961;-66
2023/07/31 01:43:58;;;;;;;;;;;18.30;99.90;;;;;;4993023;28;20072;-65
2023/07/31 01:46:26;;;;;;;;;;;18.20;99.90;;;;;;4993473;28;20439;-67
2023/07/31 01:48:54;;;;;;;;;;;18.20;99.90;;;;;;4991702;28;19972;-68
2023/07/31 01:51:36;;;;;;;;;;;18.20;99.90;;;;;;4993863;28;19964;-67
2023/07/31 01:54:04;;;;;;;;;;;18.30;99.90;;;;;;4992417;28;19965;-67
2023/07/31 01:56:39;;;;;;;;;;;18.30;99.90;;;;;;4993649;28;19969;-66
2023/07/31 01:59:09;;;;;;;;;;;18.40;99.90;;;;;;4990465;28;20012;-66
2023/07/31 02:01:36;;;;;;;;;;;18.40;99.90;;;;;;4994729;28;20394;-66
2023/07/31 02:04:04;;;;;;;;;;;18.40;99.90;;;;;;4993011;28;19964;-67
2023/07/31 02:06:32;;;;;;;;;;;18.40;99.90;;;;;;4993570;28;19965;-66
2023/07/31 02:09:00;;;;;;;;;;;18.50;99.90;;;;;;4991868;28;19969;-66
2023/07/31 02:11:28;;;;;;;;;;;18.40;99.90;;;;;;4991170;28;19964;-66
2023/07/31 02:13:56;;;;;;;;;;;18.30;99.90;;;;;;4995094;28;19972;-66
2023/07/31 02:16:25;;;;;;;0.50;0.40;;;18.20;99.90;;;;;;4993741;28;20027;-65
2023/07/31 02:18:56;;;;;;;0.50;0.40;;;18.20;99.90;;;;;;4990711;28;20209;-65
2023/07/31 02:21:24;;;;;;;0.95;0.63;;;18.20;99.90;;;;;;4990833;28;20224;-65
2023/07/31 02:23:52;;;;;;;0.50;0.40;;;18.30;99.90;;;;;;4992706;28;20206;-65
2023/07/31 02:26:20;;;;;;;1.67;0.55;;;18.30;99.90;;;;;;4992292;28;20276;-65
2023/07/31 02:28:48;;;;;;;0.60;0.43;;;18.40;99.90;;;;;;4991163;28;20214;-65
2023/07/31 02:31:16;;;;;;;0.50;0.40;;;18.30;99.90;;;;;;5001646;28;20604;-65
2023/07/31 02:33:47;;;;;;;0.90;0.50;;;18.40;99.90;;;;;;4990820;28;20210;-66
2023/07/31 02:36:15;;;;;;;0.60;0.40;;;18.30;99.90;;;;;;4990650;28;20268;-66
2023/07/31 02:38:43;;;;;;;0.60;0.50;;;18.30;99.90;;;;;;4990844;28;20214;-65
2023/07/31 02:41:11;;;;;;;0.70;0.55;;;18.30;99.90;;;;;;4993244;28;20244;-65
2023/07/31 02:43:39;;;;;;;1.13;0.50;;;18.20;99.90;;;;;;4990906;28;20205;-65
2023/07/31 02:46:07;;;;;;;0.52;0.35;;;18.30;99.90;;;;;;4991385;28;20224;-65
2023/07/31 02:48:35;;;;;;;0.60;0.40;;;18.30;99.90;;;;;;4992283;28;20225;-66
2023/07/31 02:51:04;;;;;;;0.82;0.50;;;18.20;99.90;;;;;;4993015;28;20229;-67
2023/07/31 02:53:32;;;;;;;1.40;1.02;;;18.40;99.90;;;;;;4990580;28;20263;-65
2023/07/31 02:56:00;;;;;;;0.60;0.40;;;18.30;99.90;;;;;;5011770;23;20288;-67
2023/07/31 02:58:28;;;;;;;0.88;0.82;;;18.20;99.90;;;;;;4991205;28;20217;-68
2023/07/31 03:00:56;;;;;;;0.90;0.60;;;18.20;99.90;;;;;;4991890;28;20213;-68
2023/07/31 03:03:24;;;;;;;0.60;0.40;;;18.10;99.90;;;;;;4989045;28;20212;-68
2023/07/31 03:05:52;;;;;;;0.80;0.70;;;18.20;99.90;;;;;;5005111;28;20237;-66
2023/07/31 03:08:22;;;;;;;0.60;0.50;;;18.10;99.90;;;;;;5010251;28;20208;-66
2023/07/31 03:10:49;;;;;;;0.60;0.47;;;18.00;99.90;;;;;;5012297;28;20221;-68
2023/07/31 03:13:17;;;;;;;0.93;0.60;;;17.90;99.90;;;;;;5008595;28;20212;-68
2023/07/31 03:15:45;;;;;;;0.65;0.52;;;17.90;99.90;;;;;;5009574;28;20715;-68
2023/07/31 03:18:13;;;;;;;0.70;0.40;;;17.90;99.90;;;;;;5010724;28;20205;-69
2023/07/31 03:20:43;;;;;;;1.20;1.00;;;17.90;99.90;;;;;;5011973;28;20522;-68
2023/07/31 03:23:11;;;;;;;0.60;0.40;;;17.90;99.90;;;;;;5010521;28;20208;-68
2023/07/31 03:25:42;;;;;;;1.10;0.63;;;17.90;99.90;;;;;;5012228;28;20618;-67
2023/07/31 03:28:10;;;;;;;1.58;1.15;;;17.90;99.90;;;;;;5008014;28;20213;-67
2023/07/31 03:30:38;;;;;;;0.60;0.40;;;17.90;99.90;;;;;;5009209;28;20625;-67
2023/07/31 03:33:06;;;;;;;1.73;1.00;;;17.90;99.90;;;;;;5002546;28;20209;-68
2023/07/31 03:35:34;;;;;;;0.60;0.50;;;18.10;99.90;;;;;;5009599;28;20348;-68
2023/07/31 03:38:02;;;;;;;2.13;0.57;;;18.20;99.90;;;;;;5009398;28;20217;-68
2023/07/31 03:40:30;;;;;;;0.95;0.57;;;18.20;99.90;;;;;;5010528;28;20217;-67
2023/07/31 03:42:59;;;;;;;0.50;0.40;;;18.20;99.90;;;;;;5009108;28;20204;-68
2023/07/31 03:45:27;;;;;;;0.90;0.70;;;18.20;99.90;;;;;;5010392;28;20263;-69
2023/07/31 03:47:55;;;;;;;0.60;0.40;;;18.30;99.90;;;;;;5009516;28;20596;-70
2023/07/31 03:50:24;;;;;;;0.60;0.45;;;18.40;99.90;;;;;;5011049;28;20209;-69
2023/07/31 03:52:53;;;;;;;0.50;0.35;;;18.50;99.90;;;;;;5009305;28;20205;-69
2023/07/31 03:55:21;;;;;;;0.50;0.40;;;18.60;99.90;;;;;;5009614;28;20704;-69
2023/07/31 03:57:49;;;;;;;;;;;18.50;99.90;;;;;;5009865;28;20201;-69
2023/07/31 04:00:18;;;;;;;;;;;18.40;99.90;;;;;;5009908;28;20447;-70
2023/07/31 04:02:46;;;;;;;;;;;18.50;99.90;;;;;;5010413;28;19967;-69
2023/07/31 04:05:14;;;;;;;;;;;18.50;99.90;;;;;;5007702;28;20008;-68
2023/07/31 04:07:42;;;;;;;;;;;18.40;99.90;;;;;;5009547;28;20051;-68
2023/07/31 04:10:10;;;;;;;;;;;18.50;99.90;;;;;;5006956;28;19972;-69
2023/07/31 04:12:40;;;;;;;;;;;18.50;99.90;;;;;;5010564;28;19965;-68
2023/07/31 04:15:08;;;;;;;;;;;18.50;99.90;;;;;;5011122;28;19968;-68
2023/07/31 04:17:37;;;;;;;;;;;18.50;99.90;;;;;;5010705;28;19969;-68
2023/07/31 04:20:06;;;;;;;;;;;18.40;99.90;;;;;;5003196;28;20455;-68
2023/07/31 04:22:33;;;;;;;;;;;18.30;99.90;;;;;;5003188;28;20454;-68
2023/07/31 04:25:01;;;;;;;;;;;18.30;99.90;;;;;;5004400;28;19968;-71
2023/07/31 04:27:29;;;;;;;;;;;18.30;99.90;;;;;;5008249;28;19978;-71
2023/07/31 04:29:56;;;;;;;;;;;18.30;99.90;;;;;;5006715;28;20019;-71
2023/07/31 04:32:24;;;;;;;;;;;18.20;99.90;;;;;;5009027;28;19969;-69
2023/07/31 04:34:53;;;;;;;;;;;18.20;99.90;;;;;;5007158;28;19972;-69
2023/07/31 04:37:21;;;;;;;;;;;18.10;99.90;;;;;;5005940;28;19965;-70
2023/07/31 04:39:49;;;;;;;;;;;18.10;99.90;;;;;;5010102;28;19969;-69
2023/07/31 04:42:16;;;;;;;;;;;18.00;99.90;;;;;;5009992;28;19965;-69
2023/07/31 04:44:44;;;;;;;;;;;17.90;99.90;;;;;;5009106;28;19968;-69
2023/07/31 04:47:12;;;;;;;;;;;17.90;99.90;;;;;;5006958;28;19968;-69
2023/07/31 04:49:40;;;;;;;;;;;18.00;99.90;;;;;;5008542;28;20021;-70
2023/07/31 04:52:09;;;;;;;;;;;18.00;99.90;;;;;;5008978;28;19965;-69
2023/07/31 04:54:37;;;;;;;;;;;18.10;99.90;;;;;;5003768;28;19969;-69
2023/07/31 04:57:05;;;;;;;;;;;18.10;99.90;;;;;;5005186;28;19972;-70
2023/07/31 04:59:33;;;;;;;;;;;18.00;99.90;;;;;;5009180;28;19964;-69
2023/07/31 05:02:00;;;;;;;;;;;18.00;99.90;;;;;;5010742;28;19992;-71
2023/07/31 05:04:28;;;;;;;;;;;18.00;99.90;;;;;;5005612;28;19998;-71
2023/07/31 05:06:56;;;;;;;;;;;18.00;99.90;;;;;;5010440;28;20052;-70
2023/07/31 05:09:25;;;;;;;;;;;18.00;99.90;;;;;;5011013;28;20022;-70
2023/07/31 05:11:53;;;;;;;;;;;18.00;99.90;;;;;;5008680;28;19969;-69
2023/07/31 05:14:21;;;;;;;;;;;18.10;99.90;;;;;;5010801;28;19980;-69
2023/07/31 05:16:48;;;;;;;;;;;18.00;99.90;;;;;;5007294;28;19971;-69
2023/07/31 05:19:16;;;;;;;;;;;17.90;99.90;;;;;;5003851;28;20416;-67
2023/07/31 05:21:44;;;;;;;;;;;17.90;99.90;;;;;;4996542;28;19975;-67
2023/07/31 05:24:12;;;;;;;;;;;18.00;99.90;;;;;;5000519;28;19964;-66
2023/07/31 05:26:41;;;;;;;;;;;18.10;99.90;;;;;;5005301;28;20071;-67
2023/07/31 05:29:09;;;;;;;;;;;18.00;99.90;;;;;;5003794;28;19965;-67
2023/07/31 05:31:38;;;;;;;;;;;18.00;99.90;;;;;;5006388;28;19967;-67
2023/07/31 05:34:06;;;;;;;;;;;18.00;99.90;;;;;;5000781;28;19968;-67
2023/07/31 05:36:34;;;;;;;;;;;17.90;99.90;;;;;;5002270;28;20022;-70
2023/07/31 05:39:06;;;;;;;;;;;17.90;99.90;;;;;;4996811;28;19965;-70
2023/07/31 05:41:34;;;;;;;;;;;17.90;99.90;;;;;;5000011;28;19965;-70
2023/07/31 05:44:03;;;;;;;;;;;17.90;99.90;;;;;;5003020;28;19983;-69
2023/07/31 05:46:31;;;;;;;;;;;17.90;99.90;;;;;;5001224;28;20018;-70
2023/07/31 05:49:00;;;;;;;;;;;17.90;99.90;;;;;;4994726;28;19971;-69
2023/07/31 05:51:28;;;;;;;;;;;18.00;99.90;;;;;;5001109;28;20499;-69
2023/07/31 05:53:56;;;;;;;;;;;18.00;99.90;;;;;;5000845;28;19969;-69
2023/07/31 05:56:24;;;;;;;;;;;18.10;99.90;;;;;;4999054;28;20019;-67
2023/07/31 05:58:52;;;;;;;;;;;18.10;99.90;;;;;;4996533;28;20371;-67
2023/07/31 06:01:21;;;;;;;;;;;18.10;99.90;;;;;;4998880;28;20460;-66
2023/07/31 06:03:49;;;;;;;;;;;18.00;99.90;;;;;;4995891;28;20016;-68
2023/07/31 06:06:17;;;;;;;;;;;18.10;99.90;;;;;;4993233;28;19980;-66
2023/07/31 06:08:45;;;;;;;;;;;18.20;99.90;;;;;;4997030;28;20503;-66
2023/07/31 06:11:12;;;;;;;;;;;18.10;99.90;;;;;;4997939;28;19973;-67
2023/07/31 06:13:40;;;;;;;;;;;18.30;99.90;;;;;;4998804;28;19972;-66
2023/07/31 06:16:10;;;;;;;;;;;18.40;99.90;;;;;;4995335;28;19969;-67
2023/07/31 06:18:40;;;;;;;;;;;18.40;99.90;;;;;;4998762;28;20171;-66
2023/07/31 06:21:07;;;;;;;;;;;18.50;99.90;;;;;;4999317;28;19976;-67
2023/07/31 06:23:35;;;;;;;;;;;18.40;99.90;;;;;;4999989;28;20010;-67
2023/07/31 06:26:03;;;;;;;;;;;18.40;99.90;;;;;;4996271;28;19969;-66
2023/07/31 06:28:31;;;;;;;;;;;18.40;99.90;;;;;;4999359;28;19963;-66
2023/07/31 06:30:59;;;;;;;;;;;18.30;99.90;;;;;;5000067;28;20390;-67
2023/07/31 06:33:27;;;;;;;;;;;18.40;99.90;;;;;;4998370;28;20027;-67
2023/07/31 06:35:56;;;;;;;;;;;18.40;99.90;;;;;;4997701;28;19987;-65
2023/07/31 06:38:25;;;;;;;;;;;18.40;99.90;;;;;;4999942;28;19973;-67
2023/07/31 06:40:53;;;;;;;;;;;18.40;99.90;;;;;;4998770;28;20061;-66
2023/07/31 06:43:21;;;;;;;;;;;18.30;99.90;;;;;;4998362;28;20475;-67
2023/07/31 06:45:51;;;;;;;;;;;18.30;99.90;;;;;;4999058;28;19940;-69
2023/07/31 06:48:19;;;;;;;;;;;18.30;99.90;;;;;;4999800;28;19941;-67
2023/07/31 06:50:46;;;;;;;;;;;18.30;99.90;;;;;;5000218;28;19933;-67
2023/07/31 06:53:16;;;;;;;;;;;18.50;99.90;;;;;;4998386;28;20426;-67
2023/07/31 06:55:43;;;;;;;;;;;18.60;99.90;;;;;;4995402;28;20249;-67
2023/07/31 06:58:11;;;;;;;;;;;18.60;99.90;;;;;;4998151;28;19995;-66
2023/07/31 07:00:39;;;;;;;;;;;18.60;99.90;;;;;;4999043;28;19933;-67
2023/07/31 07:03:07;;;;;;;;;;;18.60;99.90;;;;;;5000127;28;19934;-68
2023/07/31 07:05:34;;;;;;;;;;;18.70;99.90;;;;;;4997098;28;19975;-66
2023/07/31 07:08:02;;;;;;;;;;;18.80;99.90;;;;;;4998577;28;20032;-67
2023/07/31 07:10:31;;;;;;;;;;;18.80;99.90;;;;;;4998559;28;20400;-68
2023/07/31 07:12:59;;;;;;;;;;;18.80;99.90;;;;;;4995415;28;20388;-70
2023/07/31 07:15:27;;;;;;;;;;;18.90;99.90;;;;;;4996267;28;20011;-69
2023/07/31 07:17:55;;;;;;;;;;;19.00;99.90;;;;;;5000569;28;20355;-68
2023/07/31 07:20:22;;;;;;;;;;;19.20;99.90;;;;;;5000651;28;20008;-68
2023/07/31 07:22:50;;;;;;;;;;;19.30;99.90;;;;;;4999958;28;20512;-68
2023/07/31 07:25:18;;;;;;;;;;;19.50;99.90;;;;;;4997266;28;19937;-68
2023/07/31 07:27:47;;;;;;;;;;;19.70;99.90;;;;;;4993684;28;19930;-65
2023/07/31 07:30:15;;;;;;;;;;;19.90;99.90;;;;;;4997931;28;20035;-68
2023/07/31 07:32:43;;;;;;;;;;;20.00;99.90;;;;;;4996158;28;20404;-65
2023/07/31 07:35:11;;;;;;;;;;;20.10;99.90;;;;;;4991738;28;20758;-67
2023/07/31 07:37:39;;;;;;;;;;;20.10;99.90;;;;;;4997229;28;20412;-68
2023/07/31 07:40:07;;;;;;;;;;;20.30;99.90;;;;;;4993974;28;20349;-68
2023/07/31 07:42:35;;;;;;;;;;;20.20;99.90;;;;;;4994789;28;19984;-65
2023/07/31 07:45:05;;;;;;;;;;;20.20;99.90;;;;;;4991204;28;19934;-70
2023/07/31 07:47:32;;;;;;;;;;;20.20;99.90;;;;;;4993624;28;19972;-67
2023/07/31 07:50:00;;;;;;;;;;;20.20;99.90;;;;;;4998648;28;19933;-69
2023/07/31 07:52:28;;;;;;;;;;;20.20;99.90;;;;;;4998398;28;19976;-68
2023/07/31 07:54:56;;;;;;;;;;;20.40;99.90;;;;;;4994008;28;19934;-68
2023/07/31 07:57:24;;;;;;;;;;;20.40;99.90;;;;;;4995586;28;20321;-69
2023/07/31 07:59:53;;;;;;;;;;;20.40;99.90;;;;;;4996194;28;19933;-68
2023/07/31 08:02:22;;;;;;;;;;;20.40;99.90;;;;;;4995598;28;20414;-68
2023/07/31 08:04:50;;;;;;;;;;;20.40;99.90;;;;;;4995335;28;19933;-68
2023/07/31 08:07:18;;;;;;;;;;;20.40;99.90;;;;;;4996583;28;20190;-68
2023/07/31 08:09:45;;;;;;;;;;;20.40;99.90;;;;;;4994200;28;19930;-67
2023/07/31 08:12:13;;;;;;;;;;;20.30;99.90;;;;;;4999329;28;20020;-68
2023/07/31 08:14:41;;;;;;;;;;;20.30;99.90;;;;;;4991516;28;19949;-68
2023/07/31 08:17:09;;;;;;;;;;;20.20;99.90;;;;;;4996499;28;20837;-68
2023/07/31 08:19:38;;;;;;;;;;;20.30;99.90;;;;;;4997613;28;20423;-68
2023/07/31 08:22:06;;;;;;;;;;;20.40;99.90;;;;;;4995000;28;20023;-68
2023/07/31 08:24:34;;;;;;;;;;;20.50;99.90;;;;;;4994850;28;19952;-69
2023/07/31 08:27:01;;;;;;;;;;;20.60;99.90;;;;;;4988584;28;20604;-66
2023/07/31 08:29:29;;;;;;;;;;;20.60;99.90;;;;;;4994605;28;19929;-69
2023/07/31 08:31:57;;;;;;;;;;;20.60;99.90;;;;;;4995828;28;19934;-67
2023/07/31 08:34:25;;;;;;;;;;;20.60;99.90;;;;;;4995056;28;19941;-68
2023/07/31 08:36:54;;;;;;;;;;;20.60;99.90;;;;;;4992459;28;20293;-68
2023/07/31 08:39:21;;;;;;;;;;;20.60;99.90;;;;;;4997738;28;20328;-68
2023/07/31 08:41:49;;;;;;;;;;;20.70;99.90;;;;;;4996701;28;19974;-68
2023/07/31 08:44:18;;;;;;;;;;;20.90;99.90;;;;;;4993554;28;19965;-69
2023/07/31 08:46:47;;;;;;;;;;;20.90;99.90;;;;;;4988547;28;19940;-68
2023/07/31 08:49:15;;;;;;;;;;;21.10;99.90;;;;;;4992257;28;20075;-67
2023/07/31 08:51:43;;;;;;;;;;;21.10;99.90;;;;;;4994777;28;19938;-68
2023/07/31 08:54:12;;;;;;;;;;;21.10;99.90;;;;;;4996394;28;19936;-68
2023/07/31 08:56:40;;;;;;;;;;;21.00;99.90;;;;;;4989676;28;19988;-68
2023/07/31 08:59:09;;;;;;;;;;;21.00;99.90;;;;;;4997776;28;19983;-67
2023/07/31 09:01:39;;;;;;;;;;;21.00;99.90;;;;;;4998024;28;19960;-68
2023/07/31 09:04:08;;;;;;;;;;;21.00;99.90;;;;;;4997234;28;19939;-68
2023/07/31 09:06:36;;;;;;;;;;;21.10;99.90;;;;;;4994860;28;20360;-68
2023/07/31 09:09:04;;;;;;;;;;;21.30;99.90;;;;;;4996261;28;20411;-68
2023/07/31 09:11:33;;;;;;;;;;;21.50;99.90;;;;;;4994783;28;20289;-68
2023/07/31 09:14:08;;;;;;;;;;;21.40;99.90;;;;;;4996941;28;20395;-67
2023/07/31 09:16:36;;;;;;;;;;;21.40;99.90;;;;;;4994211;28;19953;-68
2023/07/31 09:19:05;;;;;;;;;;;21.40;99.90;;;;;;4996025;28;19925;-68
2023/07/31 09:21:33;;;;;;;;;;;21.60;99.90;;;;;;4996890;28;20388;-68
2023/07/31 09:24:01;;;;;;;;;;;21.70;99.90;;;;;;4997289;28;20012;-67
2023/07/31 09:26:31;;;;;;;;;;;21.90;99.90;;;;;;4993996;28;19949;-67
2023/07/31 09:29:00;;;;;;;;;;;22.00;99.90;;;;;;4998125;28;19938;-67
2023/07/31 09:31:33;;;;;;;;;;;22.10;99.90;;;;;;4996391;28;20320;-69
2023/07/31 09:34:03;;;;;;;;;;;22.00;99.90;;;;;;4996119;28;19972;-66
2023/07/31 09:36:31;;;;;;;;;;;21.70;99.90;;;;;;4994652;28;19937;-67
2023/07/31 09:39:02;;;;;;;;;;;21.50;99.90;;;;;;4997374;28;19972;-67
2023/07/31 09:41:30;;;;;;;;;;;21.40;99.90;;;;;;4996613;28;19937;-67
2023/07/31 09:43:58;;;;;;;;;;;21.20;99.90;;;;;;4999549;28;19944;-68
2023/07/31 09:46:29;;;;;;;;;;;21.00;99.90;;;;;;4998660;28;19934;-69
2023/07/31 09:49:04;;;;;;;;;;;21.00;99.90;;;;;;5000303;28;20539;-68
2023/07/31 09:51:37;;;;;;;;;;;21.00;99.90;;;;;;4999967;28;19996;-68
2023/07/31 09:54:12;;;;;;;;;;;21.00;99.90;;;;;;5000160;28;19925;-69
2023/07/31 09:56:42;;;;;;;;;;;21.20;99.90;;;;;;4996683;28;20396;-68
2023/07/31 09:59:12;;;;;;;;;;;21.30;99.90;;;;;;4999303;28;20494;-68
2023/07/31 10:01:42;;;;;;;;;;;21.30;99.90;;;;;;5000971;28;19948;-68
2023/07/31 10:04:11;;;;;;;;;;;21.40;99.90;;;;;;4983051;28;19969;-68
2023/07/31 10:06:39;;;;;;;;;;;21.60;99.90;;;;;;4998885;28;19938;-67
2023/07/31 10:09:08;;;;;;;;;;;21.70;99.90;;;;;;5000149;28;19941;-68
2023/07/31 10:11:39;;;;;;;;;;;21.70;99.90;;;;;;4999621;28;20933;-67
2023/07/31 10:14:08;;;;;;;;;;;21.70;99.90;;;;;;4999582;28;19953;-69
2023/07/31 10:16:36;;;;;;;;;;;21.70;99.90;;;;;;4996370;28;19995;-68
2023/07/31 10:19:07;;;;;;;;;;;21.80;99.90;;;;;;4999678;28;19940;-69
2023/07/31 10:21:35;;;;;;;;;;;21.80;99.90;;;;;;5000067;28;19937;-68
2023/07/31 10:24:03;;;;;;;;;;;21.80;99.90;;;;;;5001160;28;20315;-68
2023/07/31 10:26:32;;;;;;;;;;;21.70;99.90;;;;;;4978221;28;20001;-67
2023/07/31 10:29:00;;;;;;;;;;;21.80;99.90;;;;;;4999394;28;19937;-69
2023/07/31 10:31:28;;;;;;;;;;;21.80;99.90;;;;;;4999448;28;19930;-68
2023/07/31 10:33:58;;;;;;;;;;;21.90;99.90;;;;;;5000670;28;19987;-68
2023/07/31 10:36:27;;;;;;;;;;;21.90;99.90;;;;;;4998415;28;19940;-68
2023/07/31 10:38:56;;;;;;;;;;;21.90;99.90;;;;;;4998888;28;20586;-68
2023/07/31 10:41:29;;;;;;;;;;;21.90;99.90;;;;;;5001193;28;19933;-69
2023/07/31 10:43:58;;;;;;;;;;;22.10;99.90;;;;;;4998516;28;19949;-68
2023/07/31 10:46:26;;;;;;;;;;;22.10;99.90;;;;;;4998362;28;19933;-69
2023/07/31 10:48:58;;;;;;;;;;;22.10;99.90;;;;;;4999193;28;19933;-70
2023/07/31 10:51:33;;;;;;;;;;;22.10;99.90;;;;;;5000479;28;19944;-67
2023/07/31 10:54:11;;;;;;;;;;;22.20;99.90;;;;;;5000689;28;19929;-67
2023/07/31 10:56:39;;;;;;;;;;;22.30;99.90;;;;;;4993651;28;20483;-68
2023/07/31 10:59:12;;;;;;;;;;;22.40;99.90;;;;;;4998664;28;20511;-67
2023/07/31 11:01:53;;;;;;;;;;;22.40;99.90;;;;;;5000208;28;19933;-68
2023/07/31 11:04:24;;;;;;;;;;;22.50;99.90;;;;;;4999736;28;19933;-67
2023/07/31 11:07:00;;;;;;;;;;;22.50;99.90;;;;;;4997023;28;20352;-68
2023/07/31 11:09:30;;;;;;;;;;;22.70;99.90;;;;;;5000848;28;19929;-69
2023/07/31 11:11:59;;;;;;;;;;;22.70;99.90;;;;;;4998437;28;19941;-68
2023/07/31 11:14:27;;;;;;;;;;;22.70;99.90;;;;;;4998278;28;19934;-69
2023/07/31 11:16:55;;;;;;;;;;;22.60;99.90;;;;;;4997537;28;19933;-68
2023/07/31 11:19:23;;;;;;;;;;;22.50;99.90;;;;;;5001525;28;20020;-69
2023/07/31 11:21:51;;;;;;;;;;;22.50;99.90;;;;;;5001479;28;20438;-67
2023/07/31 11:24:21;;;;;;;;;;;22.50;99.90;;;;;;4999794;28;20021;-67
2023/07/31 11:26:50;;;;;;;;;;;22.40;99.90;;;;;;4996877;28;19933;-70
2023/07/31 11:29:18;;;;;;;;;;;22.30;99.90;;;;;;4999762;28;19933;-70
2023/07/31 11:31:46;;;;;;;;;;;22.30;99.90;;;;;;5001160;28;19948;-67
2023/07/31 11:34:14;;;;;;;;;;;22.30;99.90;;;;;;4999005;28;19934;-67
2023/07/31 11:36:53;;;;;;;;;;;22.30;99.90;;;;;;4994194;28;19944;-67
2023/07/31 11:39:22;;;;;;;;;;;22.20;99.90;;;;;;4999492;28;19929;-67
2023/07/31 11:41:50;;;;;;;;;;;22.20;99.90;;;;;;4998322;28;19934;-67
2023/07/31 11:44:18;;;;;;;;;;;22.30;99.90;;;;;;4999840;28;19969;-67
2023/07/31 11:46:57;;;;;;;;;;;22.40;99.90;;;;;;4995450;28;20056;-67
2023/07/31 11:49:25;;;;;;;;;;;22.40;99.90;;;;;;4999508;28;19940;-67
2023/07/31 11:51:52;;;;;;;;;;;22.50;99.90;;;;;;4999365;28;19940;-66
2023/07/31 11:54:21;;;;;;;;;;;22.50;99.90;;;;;;4998407;28;19956;-68
2023/07/31 11:56:50;;;;;;;;;;;22.50;99.90;;;;;;4993998;28;19936;-67
2023/07/31 11:59:18;;;;;;;;;;;22.50;99.90;;;;;;4997060;28;19933;-67
2023/07/31 12:01:46;;;;;;;;;;;22.50;99.90;;;;;;4998621;28;20515;-65
2023/07/31 12:04:14;;;;;;;;;;;22.50;99.90;;;;;;4998749;28;20432;-67
2023/07/31 12:06:42;;;;;;;;;;;22.40;99.90;;;;;;4995461;28;19940;-67
2023/07/31 12:09:10;;;;;;;;;;;22.40;99.90;;;;;;4996820;28;20012;-68
2023/07/31 12:11:44;;;;;;;;;;;22.40;99.90;;;;;;4998339;28;20031;-67
2023/07/31 12:14:20;;;;;;;;;;;22.30;99.90;;;;;;4996897;28;19933;-68
2023/07/31 12:16:48;;;;;;;;;;;22.30;99.90;;;;;;4995060;28;19936;-66
2023/07/31 12:19:16;;;;;;;;;;;22.20;99.90;;;;;;4998345;28;20314;-67
2023/07/31 12:21:44;;;;;;;;;;;22.20;99.90;;;;;;4998462;28;19934;-67
2023/07/31 12:24:11;;;;;;;;;;;22.20;99.90;;;;;;4997739;28;19934;-69
2023/07/31 12:26:39;;;;;;;;;;;22.10;99.90;;;;;;4995370;28;19934;-67
2023/07/31 12:29:09;;;;;;;;;;;22.10;99.90;;;;;;4996098;28;20063;-66
2023/07/31 12:31:37;;;;;;;;;;;22.10;99.90;;;;;;4997710;28;19941;-68
2023/07/31 12:34:15;;;;;;;;;;;22.10;99.90;;;;;;4996759;28;19925;-68
2023/07/31 12:36:43;;;;;;;;;;;22.10;99.90;;;;;;4993377;28;19933;-68
2023/07/31 12:39:11;;;;;;;;;;;22.10;99.90;;;;;;4996997;28;19933;-68
2023/07/31 12:41:39;;;;;;;;;;;22.20;99.90;;;;;;4996503;28;19951;-67
2023/07/31 12:44:06;;;;;;;;;;;22.30;99.90;;;;;;4994535;28;19926;-67
2023/07/31 12:46:36;;;;;;;;;;;22.40;99.90;;;;;;4993226;28;19936;-68
2023/07/31 12:49:04;;;;;;;;;;;22.60;99.90;;;;;;4996253;28;19933;-68
2023/07/31 12:51:32;;;;;;;;;;;22.90;99.90;;;;;;4998569;28;20404;-68
2023/07/31 12:54:00;;;;;;;;;;;23.30;99.90;;;;;;4997637;28;19925;-68
2023/07/31 12:56:27;;;;;;;;;;;23.70;99.90;;;;;;4993321;28;20002;-68
2023/07/31 12:58:55;;;;;;;;;;;23.80;99.90;;;;;;4998590;28;19929;-67
2023/07/31 13:01:23;;;;;;;;;;;24.10;99.90;;;;;;4998184;28;19940;-67
2023/07/31 13:03:52;;;;;;;;;;;24.00;99.90;;;;;;4998337;28;19969;-67
2023/07/31 13:06:20;;;;;;;;;;;23.90;99.90;;;;;;4995339;28;19944;-65
2023/07/31 13:08:48;;;;;;;;;;;24.00;99.90;;;;;;4999820;28;19936;-67
2023/07/31 13:11:16;;;;;;;;;;;24.20;99.90;;;;;;4999323;28;19937;-68
2023/07/31 13:13:44;;;;;;;;;;;24.30;99.90;;;;;;4995611;28;21073;-68
2023/07/31 13:16:11;;;;;;;;;;;24.40;99.90;;;;;;4993911;28;19933;-68
2023/07/31 13:18:39;;;;;;;;;;;24.60;99.90;;;;;;4996413;28;19941;-67
2023/07/31 13:21:08;;;;;;;;;;;24.90;99.90;;;;;;5001730;28;20610;-67
2023/07/31 13:23:36;;;;;;;;;;;25.20;99.90;;;;;;5001917;28;19925;-68
2023/07/31 13:26:04;;;;;;;;;;;25.30;99.90;;;;;;4997056;28;20335;-66
2023/07/31 13:28:31;;;;;;;;;;;25.30;99.90;;;;;;5000121;28;19925;-66
2023/07/31 13:30:59;;;;;;;;;;;25.10;99.90;;;;;;5003167;28;19925;-66
2023/07/31 13:33:27;;;;;;;;;;;24.80;99.90;;;;;;5002344;28;20770;-67
2023/07/31 13:36:04;;;;;;;;;;;24.60;99.90;;;;;;4997556;28;19929;-67
2023/07/31 13:38:34;;;;;;;;;;;24.50;99.90;;;;;;5001498;28;19926;-67
2023/07/31 13:41:02;;;;;;;;;;;24.30;99.90;;;;;;5003058;28;20008;-67
2023/07/31 13:43:29;;;;;;;;;;;24.00;99.90;;;;;;5001916;28;19933;-67
2023/07/31 13:46:03;;;;;;;;;;;23.90;99.90;;;;;;4999350;28;19985;-66
2023/07/31 13:48:31;;;;;;;;;;;23.80;99.90;;;;;;5001680;28;19940;-68
2023/07/31 13:50:58;;;;;;;;;;;23.70;99.90;;;;;;5003557;28;19932;-67
2023/07/31 13:53:26;;;;;;;;;;;23.40;99.90;;;;;;5002280;28;20421;-67
2023/07/31 13:55:55;;;;;;;;;;;23.20;99.90;;;;;;4998928;28;19933;-67
2023/07/31 13:58:23;;;;;;;;;;;23.10;99.90;;;;;;4998942;28;19941;-67
2023/07/31 14:00:51;;;;;;;;;;;23.00;99.90;;;;;;5001465;28;20471;-67
2023/07/31 14:03:19;;;;;;;;;;;22.90;99.90;;;;;;5002770;28;19968;-67
2023/07/31 14:05:47;;;;;;;;;;;22.80;99.90;;;;;;4998561;28;20726;-68
2023/07/31 14:08:15;;;;;;;;;;;22.70;99.90;;;;;;5001350;28;21121;-67
2023/07/31 14:10:42;;;;;;;;;;;22.60;99.90;;;;;;5000424;28;19988;-67
2023/07/31 14:13:12;;;;;;;;;;;22.50;99.90;;;;;;4999027;28;20315;-66
2023/07/31 14:15:40;;;;;;;;;;;22.40;99.90;;;;;;4998998;28;19933;-65